Погода Плотниковна неделю

Ростовская область, Россия

16 - 22 июня
  • 16июня
    Сегодня
    +18°
    +31°
    Облачно с прояснениями
    ВремяПогодаТемператураВлажностьДавлениеВетер, м/сВероятность осадков
    00:00Ясно и безоблачно+24°C42 %748 мм4.0 м/с2 %
    03:00Практически безоблачно+21°C55 %748 мм2.4 м/с2 %
    06:00Практически безоблачно+22°C65 %749 мм3.1 м/с2 %
    09:00Практически безоблачно+27°C53 %751 мм2.6 м/с2 %
    12:00Облачно с прояснениями+30°C37 %750 мм2.9 м/с2 %
    15:00Облачно с прояснениями+29°C38 %751 мм1.9 м/с15 %
    18:00Облачно с прояснениями+28°C58 %751 мм4.2 м/с32 %
    21:00Небольшая облачность+24°C66 %752 мм2.4 м/с16 %
  • 17июня
    Понедельник
    +19°
    +33°
    Ясно и безоблачно
    ВремяПогодаТемператураВлажностьДавлениеВетер, м/сВероятность осадков
    00:00Небольшая облачность+20°C80 %752 мм1.5 м/с4 %
    03:00Практически безоблачно+19°C92 %753 мм1.7 м/с16 %
    06:00Небольшая облачность+21°C88 %754 мм3.0 м/с18 %
    09:00Ясно и безоблачно+26°C63 %754 мм2.3 м/с10 %
    12:00Ясно и безоблачно+31°C42 %754 мм3.2 м/с3 %
    15:00Ясно и безоблачно+32°C33 %753 мм2.9 м/с2 %
    18:00Ясно и безоблачно+32°C35 %753 мм3.8 м/с2 %
    21:00Небольшая облачность+26°C49 %754 мм2.6 м/с2 %
  • 18июня
    Вторник
    +19°
    +33°
    Практически безоблачно
    ВремяПогодаТемператураВлажностьДавлениеВетер, м/сВероятность осадков
    00:00Ясно и безоблачно+22°C61 %754 мм2.1 м/с2 %
    03:00Ясно и безоблачно+20°C76 %755 мм1.8 м/с2 %
    06:00Ясно и безоблачно+21°C78 %755 мм2.2 м/с5 %
    09:00Ясно и безоблачно+28°C55 %756 мм2.9 м/с2 %
    12:00Ясно и безоблачно+31°C38 %755 мм4.0 м/с2 %
    15:00Практически безоблачно+33°C34 %754 мм4.3 м/с3 %
    18:00Небольшая облачность+31°C40 %754 мм3.7 м/с15 %
    21:00Ясно и безоблачно+25°C61 %755 мм2.7 м/с6 %
  • 19июня
    Среда
    +20°
    +33°
    Ясно и безоблачно
    ВремяПогодаТемператураВлажностьДавлениеВетер, м/сВероятность осадков
    00:00Ясно и безоблачно+21°C70 %755 мм2.0 м/с2 %
    03:00Ясно и безоблачно+20°C78 %755 мм2.3 м/с2 %
    06:00Ясно и безоблачно+21°C77 %756 мм1.7 м/с2 %
    09:00Ясно и безоблачно+28°C51 %756 мм2.7 м/с2 %
    12:00Ясно и безоблачно+31°C41 %756 мм3.4 м/с2 %
    15:00Ясно и безоблачно+32°C35 %755 мм3.9 м/с5 %
    18:00Ясно и безоблачно+32°C33 %755 мм3.2 м/с5 %
    21:00Ясно и безоблачно+25°C49 %755 мм2.0 м/с2 %
  • 20июня
    Четверг
    +16°
    +35°
    Ясно и безоблачно
    ВремяПогодаТемператураВлажностьДавлениеВетер, м/сВероятность осадков
    00:00Ясно и безоблачно+22°C55 %755 мм2.0 м/с2 %
    03:00Ясно и безоблачно+21°C61 %755 мм2.8 м/с2 %
    06:00Ясно и безоблачно+22°C63 %755 мм2.7 м/с2 %
    09:00Ясно и безоблачно+30°C37 %754 мм0.8 м/с2 %
    12:00Ясно и безоблачно+33°C30 %754 мм1.6 м/с2 %
    15:00Ясно и безоблачно+34°C28 %752 мм2.6 м/с2 %
    18:00Облачно с прояснениями+33°C24 %751 мм2.7 м/с2 %
    21:00Ясно и безоблачно+25°C27 %751 мм3.5 м/с2 %
Мы используем cookies
Соглашаюсь